sensor_id;sensor_type;location;lat;lon;timestamp;P1;durP1;ratioP1;P2;durP2;ratioP2
52586;SDS011;38480;52.724;6.436;2024-02-28T00:00:28;395.77;;;62.30;;
52586;SDS011;38480;52.724;6.436;2024-02-28T00:02:54;420.87;;;61.57;;
52586;SDS011;38480;52.724;6.436;2024-02-28T00:05:20;359.43;;;58.30;;
52586;SDS011;38480;52.724;6.436;2024-02-28T00:07:46;457.50;;;69.53;;
52586;SDS011;38480;52.724;6.436;2024-02-28T00:10:13;447.70;;;67.20;;
52586;SDS011;38480;52.724;6.436;2024-02-28T00:12:39;413.47;;;60.73;;
52586;SDS011;38480;52.724;6.436;2024-02-28T00:15:05;487.53;;;67.60;;
52586;SDS011;38480;52.724;6.436;2024-02-28T00:17:39;468.83;;;68.00;;
52586;SDS011;38480;52.724;6.436;2024-02-28T00:20:08;512.60;;;69.73;;
52586;SDS011;38480;52.724;6.436;2024-02-28T00:22:35;473.83;;;68.07;;
52586;SDS011;38480;52.724;6.436;2024-02-28T00:25:02;483.30;;;66.43;;
52586;SDS011;38480;52.724;6.436;2024-02-28T00:27:28;495.97;;;70.50;;
52586;SDS011;38480;52.724;6.436;2024-02-28T00:29:54;406.63;;;63.93;;
52586;SDS011;38480;52.724;6.436;2024-02-28T00:32:20;373.07;;;60.60;;
52586;SDS011;38480;52.724;6.436;2024-02-28T00:34:46;391.07;;;59.83;;
52586;SDS011;38480;52.724;6.436;2024-02-28T00:37:12;460.20;;;67.17;;
52586;SDS011;38480;52.724;6.436;2024-02-28T00:39:38;381.40;;;63.93;;
52586;SDS011;38480;52.724;6.436;2024-02-28T00:42:04;316.77;;;56.03;;
52586;SDS011;38480;52.724;6.436;2024-02-28T00:44:31;342.13;;;59.70;;
52586;SDS011;38480;52.724;6.436;2024-02-28T00:46:56;339.93;;;58.73;;
52586;SDS011;38480;52.724;6.436;2024-02-28T00:49:23;293.57;;;52.07;;
52586;SDS011;38480;52.724;6.436;2024-02-28T00:51:48;337.87;;;58.27;;
52586;SDS011;38480;52.724;6.436;2024-02-28T00:54:14;277.03;;;50.67;;
52586;SDS011;38480;52.724;6.436;2024-02-28T00:56:40;411.97;;;63.30;;
52586;SDS011;38480;52.724;6.436;2024-02-28T00:59:07;303.23;;;54.93;;
52586;SDS011;38480;52.724;6.436;2024-02-28T01:01:36;276.67;;;51.40;;
52586;SDS011;38480;52.724;6.436;2024-02-28T01:04:02;317.93;;;52.87;;
52586;SDS011;38480;52.724;6.436;2024-02-28T01:06:27;329.37;;;56.93;;
52586;SDS011;38480;52.724;6.436;2024-02-28T01:08:54;360.00;;;56.23;;
52586;SDS011;38480;52.724;6.436;2024-02-28T01:11:19;302.07;;;53.90;;
52586;SDS011;38480;52.724;6.436;2024-02-28T01:13:46;310.37;;;53.87;;
52586;SDS011;38480;52.724;6.436;2024-02-28T01:16:12;393.53;;;59.87;;
52586;SDS011;38480;52.724;6.436;2024-02-28T01:18:38;404.40;;;60.97;;
52586;SDS011;38480;52.724;6.436;2024-02-28T01:21:04;346.40;;;57.27;;
52586;SDS011;38480;52.724;6.436;2024-02-28T01:23:30;323.23;;;53.83;;
52586;SDS011;38480;52.724;6.436;2024-02-28T01:25:56;340.67;;;56.37;;
52586;SDS011;38480;52.724;6.436;2024-02-28T01:28:22;432.03;;;65.03;;
52586;SDS011;38480;52.724;6.436;2024-02-28T01:30:48;396.47;;;59.97;;
52586;SDS011;38480;52.724;6.436;2024-02-28T01:33:14;285.50;;;54.10;;
52586;SDS011;38480;52.724;6.436;2024-02-28T01:35:40;296.23;;;53.07;;
52586;SDS011;38480;52.724;6.436;2024-02-28T01:38:06;238.47;;;49.70;;
52586;SDS011;38480;52.724;6.436;2024-02-28T01:40:32;241.77;;;51.77;;
52586;SDS011;38480;52.724;6.436;2024-02-28T01:43:07;337.70;;;57.70;;
52586;SDS011;38480;52.724;6.436;2024-02-28T01:45:33;329.60;;;55.97;;
52586;SDS011;38480;52.724;6.436;2024-02-28T01:48:00;282.00;;;55.43;;
52586;SDS011;38480;52.724;6.436;2024-02-28T01:50:26;283.30;;;51.50;;
52586;SDS011;38480;52.724;6.436;2024-02-28T01:52:52;283.47;;;52.73;;
52586;SDS011;38480;52.724;6.436;2024-02-28T01:55:18;278.67;;;56.27;;
52586;SDS011;38480;52.724;6.436;2024-02-28T01:57:44;375.17;;;59.90;;
52586;SDS011;38480;52.724;6.436;2024-02-28T02:00:10;439.13;;;67.43;;
52586;SDS011;38480;52.724;6.436;2024-02-28T02:02:36;365.57;;;60.93;;
52586;SDS011;38480;52.724;6.436;2024-02-28T02:05:03;421.03;;;65.83;;
52586;SDS011;38480;52.724;6.436;2024-02-28T02:07:30;380.70;;;63.33;;
52586;SDS011;38480;52.724;6.436;2024-02-28T02:09:57;410.00;;;65.33;;
52586;SDS011;38480;52.724;6.436;2024-02-28T02:12:23;381.83;;;62.50;;
52586;SDS011;38480;52.724;6.436;2024-02-28T02:14:49;544.13;;;80.83;;
52586;SDS011;38480;52.724;6.436;2024-02-28T02:17:15;421.47;;;68.07;;
52586;SDS011;38480;52.724;6.436;2024-02-28T02:19:41;357.73;;;60.83;;
52586;SDS011;38480;52.724;6.436;2024-02-28T02:22:08;404.77;;;66.27;;
52586;SDS011;38480;52.724;6.436;2024-02-28T02:24:34;373.37;;;65.90;;
52586;SDS011;38480;52.724;6.436;2024-02-28T02:27:01;356.97;;;62.80;;
52586;SDS011;38480;52.724;6.436;2024-02-28T02:29:30;416.10;;;69.77;;
52586;SDS011;38480;52.724;6.436;2024-02-28T02:31:56;383.57;;;65.03;;
52586;SDS011;38480;52.724;6.436;2024-02-28T02:34:22;300.73;;;59.93;;
52586;SDS011;38480;52.724;6.436;2024-02-28T02:36:48;369.70;;;63.90;;
52586;SDS011;38480;52.724;6.436;2024-02-28T02:39:14;318.80;;;57.80;;
52586;SDS011;38480;52.724;6.436;2024-02-28T02:41:40;404.47;;;67.90;;
52586;SDS011;38480;52.724;6.436;2024-02-28T02:44:07;343.20;;;64.93;;
52586;SDS011;38480;52.724;6.436;2024-02-28T02:46:33;370.63;;;66.87;;
52586;SDS011;38480;52.724;6.436;2024-02-28T02:48:59;355.80;;;66.03;;
52586;SDS011;38480;52.724;6.436;2024-02-28T02:51:25;333.30;;;63.33;;
52586;SDS011;38480;52.724;6.436;2024-02-28T02:53:51;366.73;;;64.33;;
52586;SDS011;38480;52.724;6.436;2024-02-28T02:56:18;406.67;;;71.13;;
52586;SDS011;38480;52.724;6.436;2024-02-28T02:58:44;411.73;;;72.90;;
52586;SDS011;38480;52.724;6.436;2024-02-28T03:01:10;333.07;;;62.27;;
52586;SDS011;38480;52.724;6.436;2024-02-28T03:03:36;384.03;;;68.53;;
52586;SDS011;38480;52.724;6.436;2024-02-28T03:06:03;324.77;;;62.03;;
52586;SDS011;38480;52.724;6.436;2024-02-28T03:08:30;346.57;;;63.63;;
52586;SDS011;38480;52.724;6.436;2024-02-28T03:10:56;342.87;;;66.37;;
52586;SDS011;38480;52.724;6.436;2024-02-28T03:13:22;364.03;;;67.77;;
52586;SDS011;38480;52.724;6.436;2024-02-28T03:15:48;490.17;;;80.90;;
52586;SDS011;38480;52.724;6.436;2024-02-28T03:18:14;413.43;;;69.83;;
52586;SDS011;38480;52.724;6.436;2024-02-28T03:20:40;296.23;;;62.07;;
52586;SDS011;38480;52.724;6.436;2024-02-28T03:23:06;418.70;;;68.37;;
52586;SDS011;38480;52.724;6.436;2024-02-28T03:25:32;387.90;;;68.20;;
52586;SDS011;38480;52.724;6.436;2024-02-28T03:27:59;443.23;;;77.30;;
52586;SDS011;38480;52.724;6.436;2024-02-28T03:30:26;359.37;;;69.60;;
52586;SDS011;38480;52.724;6.436;2024-02-28T03:32:52;345.73;;;65.37;;
52586;SDS011;38480;52.724;6.436;2024-02-28T03:35:18;303.83;;;58.13;;
52586;SDS011;38480;52.724;6.436;2024-02-28T03:37:44;306.70;;;61.50;;
52586;SDS011;38480;52.724;6.436;2024-02-28T03:40:10;376.80;;;67.13;;
52586;SDS011;38480;52.724;6.436;2024-02-28T03:42:36;355.23;;;66.43;;
52586;SDS011;38480;52.724;6.436;2024-02-28T03:45:02;204.67;;;51.97;;
52586;SDS011;38480;52.724;6.436;2024-02-28T03:47:29;242.43;;;52.67;;
52586;SDS011;38480;52.724;6.436;2024-02-28T03:49:55;322.23;;;59.60;;
52586;SDS011;38480;52.724;6.436;2024-02-28T03:52:22;319.47;;;61.27;;
52586;SDS011;38480;52.724;6.436;2024-02-28T03:54:48;302.30;;;59.83;;
52586;SDS011;38480;52.724;6.436;2024-02-28T03:57:14;212.20;;;51.97;;
52586;SDS011;38480;52.724;6.436;2024-02-28T03:59:41;227.40;;;52.70;;
52586;SDS011;38480;52.724;6.436;2024-02-28T04:02:07;267.23;;;58.07;;
52586;SDS011;38480;52.724;6.436;2024-02-28T04:04:33;235.77;;;53.77;;
52586;SDS011;38480;52.724;6.436;2024-02-28T04:06:59;249.77;;;55.23;;
52586;SDS011;38480;52.724;6.436;2024-02-28T04:09:25;256.10;;;55.83;;
52586;SDS011;38480;52.724;6.436;2024-02-28T04:11:51;336.03;;;64.77;;
52586;SDS011;38480;52.724;6.436;2024-02-28T04:14:17;241.00;;;58.93;;
52586;SDS011;38480;52.724;6.436;2024-02-28T04:16:43;194.67;;;53.33;;
52586;SDS011;38480;52.724;6.436;2024-02-28T04:19:10;192.97;;;52.07;;
52586;SDS011;38480;52.724;6.436;2024-02-28T04:21:36;202.93;;;51.53;;
52586;SDS011;38480;52.724;6.436;2024-02-28T04:24:03;184.00;;;52.63;;
52586;SDS011;38480;52.724;6.436;2024-02-28T04:26:29;203.63;;;50.03;;
52586;SDS011;38480;52.724;6.436;2024-02-28T04:28:55;167.57;;;49.23;;
52586;SDS011;38480;52.724;6.436;2024-02-28T04:31:21;160.53;;;46.73;;
52586;SDS011;38480;52.724;6.436;2024-02-28T04:33:47;152.80;;;45.23;;
52586;SDS011;38480;52.724;6.436;2024-02-28T04:36:13;197.13;;;50.60;;
52586;SDS011;38480;52.724;6.436;2024-02-28T04:38:41;181.60;;;47.57;;
52586;SDS011;38480;52.724;6.436;2024-02-28T04:41:07;161.97;;;46.60;;
52586;SDS011;38480;52.724;6.436;2024-02-28T04:43:33;149.20;;;45.07;;
52586;SDS011;38480;52.724;6.436;2024-02-28T04:45:59;152.50;;;47.43;;
52586;SDS011;38480;52.724;6.436;2024-02-28T04:48:25;147.43;;;44.90;;
52586;SDS011;38480;52.724;6.436;2024-02-28T04:50:51;149.93;;;45.87;;
52586;SDS011;38480;52.724;6.436;2024-02-28T04:53:17;146.93;;;44.23;;
52586;SDS011;38480;52.724;6.436;2024-02-28T04:55:43;143.73;;;45.00;;
52586;SDS011;38480;52.724;6.436;2024-02-28T04:58:09;144.40;;;45.17;;
52586;SDS011;38480;52.724;6.436;2024-02-28T05:00:35;141.33;;;43.80;;
52586;SDS011;38480;52.724;6.436;2024-02-28T05:03:01;140.93;;;44.23;;
52586;SDS011;38480;52.724;6.436;2024-02-28T05:05:27;127.50;;;41.50;;
52586;SDS011;38480;52.724;6.436;2024-02-28T05:07:53;136.17;;;43.40;;
52586;SDS011;38480;52.724;6.436;2024-02-28T05:10:19;132.67;;;42.87;;
52586;SDS011;38480;52.724;6.436;2024-02-28T05:12:45;123.87;;;41.13;;
52586;SDS011;38480;52.724;6.436;2024-02-28T05:15:11;124.13;;;42.63;;
52586;SDS011;38480;52.724;6.436;2024-02-28T05:17:37;118.90;;;39.37;;
52586;SDS011;38480;52.724;6.436;2024-02-28T05:20:04;111.33;;;39.30;;
52586;SDS011;38480;52.724;6.436;2024-02-28T05:22:30;116.67;;;40.63;;
52586;SDS011;38480;52.724;6.436;2024-02-28T05:24:56;128.87;;;42.67;;
52586;SDS011;38480;52.724;6.436;2024-02-28T05:27:22;113.93;;;38.90;;
52586;SDS011;38480;52.724;6.436;2024-02-28T05:29:48;117.30;;;37.73;;
52586;SDS011;38480;52.724;6.436;2024-02-28T05:32:14;111.77;;;40.53;;
52586;SDS011;38480;52.724;6.436;2024-02-28T05:34:42;107.10;;;38.33;;
52586;SDS011;38480;52.724;6.436;2024-02-28T05:37:08;121.87;;;42.20;;
52586;SDS011;38480;52.724;6.436;2024-02-28T05:39:34;115.13;;;38.20;;
52586;SDS011;38480;52.724;6.436;2024-02-28T05:42:00;107.57;;;40.77;;
52586;SDS011;38480;52.724;6.436;2024-02-28T05:44:26;94.43;;;36.83;;
52586;SDS011;38480;52.724;6.436;2024-02-28T05:46:52;103.10;;;38.17;;
52586;SDS011;38480;52.724;6.436;2024-02-28T05:49:18;102.83;;;38.87;;
52586;SDS011;38480;52.724;6.436;2024-02-28T05:51:44;97.93;;;35.83;;
52586;SDS011;38480;52.724;6.436;2024-02-28T05:54:11;103.70;;;37.73;;
52586;SDS011;38480;52.724;6.436;2024-02-28T05:56:37;97.33;;;36.07;;
52586;SDS011;38480;52.724;6.436;2024-02-28T05:59:03;93.03;;;35.67;;
52586;SDS011;38480;52.724;6.436;2024-02-28T06:01:29;82.07;;;33.27;;
52586;SDS011;38480;52.724;6.436;2024-02-28T06:03:55;82.13;;;32.40;;
52586;SDS011;38480;52.724;6.436;2024-02-28T06:06:21;88.30;;;34.50;;
52586;SDS011;38480;52.724;6.436;2024-02-28T06:08:47;83.50;;;33.70;;
52586;SDS011;38480;52.724;6.436;2024-02-28T06:11:14;87.70;;;33.60;;
52586;SDS011;38480;52.724;6.436;2024-02-28T06:13:40;88.37;;;34.43;;
52586;SDS011;38480;52.724;6.436;2024-02-28T06:16:06;80.67;;;32.57;;
52586;SDS011;38480;52.724;6.436;2024-02-28T06:18:32;81.20;;;33.67;;
52586;SDS011;38480;52.724;6.436;2024-02-28T06:20:58;83.90;;;33.70;;
52586;SDS011;38480;52.724;6.436;2024-02-28T06:23:25;74.33;;;32.33;;
52586;SDS011;38480;52.724;6.436;2024-02-28T06:25:51;79.90;;;32.10;;
52586;SDS011;38480;52.724;6.436;2024-02-28T06:28:17;82.60;;;31.50;;
52586;SDS011;38480;52.724;6.436;2024-02-28T06:30:43;80.93;;;34.13;;
52586;SDS011;38480;52.724;6.436;2024-02-28T06:33:11;76.00;;;31.97;;
52586;SDS011;38480;52.724;6.436;2024-02-28T06:35:37;79.70;;;33.83;;
52586;SDS011;38480;52.724;6.436;2024-02-28T06:38:03;78.23;;;32.40;;
52586;SDS011;38480;52.724;6.436;2024-02-28T06:40:29;72.03;;;31.43;;
52586;SDS011;38480;52.724;6.436;2024-02-28T06:42:55;77.60;;;31.93;;
52586;SDS011;38480;52.724;6.436;2024-02-28T06:45:21;84.07;;;35.07;;
52586;SDS011;38480;52.724;6.436;2024-02-28T06:47:47;72.10;;;32.03;;
52586;SDS011;38480;52.724;6.436;2024-02-28T06:50:13;81.47;;;33.03;;
52586;SDS011;38480;52.724;6.436;2024-02-28T06:52:40;76.43;;;34.37;;
52586;SDS011;38480;52.724;6.436;2024-02-28T06:55:06;79.07;;;34.97;;
52586;SDS011;38480;52.724;6.436;2024-02-28T06:57:35;77.07;;;33.00;;
52586;SDS011;38480;52.724;6.436;2024-02-28T07:00:01;74.60;;;32.80;;
52586;SDS011;38480;52.724;6.436;2024-02-28T07:02:27;80.37;;;34.33;;
52586;SDS011;38480;52.724;6.436;2024-02-28T07:04:53;80.20;;;33.97;;
52586;SDS011;38480;52.724;6.436;2024-02-28T07:07:19;75.87;;;34.60;;
52586;SDS011;38480;52.724;6.436;2024-02-28T07:09:46;78.23;;;34.07;;
52586;SDS011;38480;52.724;6.436;2024-02-28T07:12:12;88.00;;;36.20;;
52586;SDS011;38480;52.724;6.436;2024-02-28T07:14:38;80.90;;;34.77;;
52586;SDS011;38480;52.724;6.436;2024-02-28T07:17:04;77.50;;;36.37;;
52586;SDS011;38480;52.724;6.436;2024-02-28T07:19:32;77.20;;;34.60;;
52586;SDS011;38480;52.724;6.436;2024-02-28T07:21:58;87.00;;;35.77;;
52586;SDS011;38480;52.724;6.436;2024-02-28T07:24:24;76.23;;;35.67;;
52586;SDS011;38480;52.724;6.436;2024-02-28T07:26:49;80.87;;;35.37;;
52586;SDS011;38480;52.724;6.436;2024-02-28T07:29:16;83.87;;;36.37;;
52586;SDS011;38480;52.724;6.436;2024-02-28T07:31:42;79.30;;;35.60;;
52586;SDS011;38480;52.724;6.436;2024-02-28T07:34:08;91.83;;;36.47;;
52586;SDS011;38480;52.724;6.436;2024-02-28T07:36:34;79.50;;;35.03;;
52586;SDS011;38480;52.724;6.436;2024-02-28T07:39:00;77.77;;;35.27;;
52586;SDS011;38480;52.724;6.436;2024-02-28T07:41:26;78.73;;;36.50;;
52586;SDS011;38480;52.724;6.436;2024-02-28T07:43:53;80.60;;;34.80;;
52586;SDS011;38480;52.724;6.436;2024-02-28T07:46:19;77.83;;;37.13;;
52586;SDS011;38480;52.724;6.436;2024-02-28T07:48:45;76.97;;;35.93;;
52586;SDS011;38480;52.724;6.436;2024-02-28T07:51:11;78.63;;;33.57;;
52586;SDS011;38480;52.724;6.436;2024-02-28T07:53:37;69.47;;;33.17;;
52586;SDS011;38480;52.724;6.436;2024-02-28T07:56:03;73.90;;;32.90;;
52586;SDS011;38480;52.724;6.436;2024-02-28T07:58:29;72.67;;;34.23;;
52586;SDS011;38480;52.724;6.436;2024-02-28T08:00:55;66.07;;;31.10;;
52586;SDS011;38480;52.724;6.436;2024-02-28T08:03:21;71.50;;;33.23;;
52586;SDS011;38480;52.724;6.436;2024-02-28T08:05:47;70.70;;;36.23;;
52586;SDS011;38480;52.724;6.436;2024-02-28T08:08:13;73.80;;;34.37;;
52586;SDS011;38480;52.724;6.436;2024-02-28T08:10:39;67.07;;;33.53;;
52586;SDS011;38480;52.724;6.436;2024-02-28T08:13:05;63.90;;;29.10;;
52586;SDS011;38480;52.724;6.436;2024-02-28T08:15:32;70.00;;;32.57;;
52586;SDS011;38480;52.724;6.436;2024-02-28T08:17:58;65.27;;;33.97;;
52586;SDS011;38480;52.724;6.436;2024-02-28T08:20:24;63.13;;;32.53;;
52586;SDS011;38480;52.724;6.436;2024-02-28T08:22:51;65.10;;;33.40;;
52586;SDS011;38480;52.724;6.436;2024-02-28T08:25:22;67.77;;;33.70;;
52586;SDS011;38480;52.724;6.436;2024-02-28T08:27:48;66.33;;;32.97;;
52586;SDS011;38480;52.724;6.436;2024-02-28T08:30:14;64.37;;;31.77;;
52586;SDS011;38480;52.724;6.436;2024-02-28T08:32:41;55.27;;;30.97;;
52586;SDS011;38480;52.724;6.436;2024-02-28T08:35:08;61.40;;;33.13;;
52586;SDS011;38480;52.724;6.436;2024-02-28T08:37:35;64.63;;;31.77;;
52586;SDS011;38480;52.724;6.436;2024-02-28T08:40:01;64.00;;;32.20;;
52586;SDS011;38480;52.724;6.436;2024-02-28T08:42:27;63.63;;;33.47;;
52586;SDS011;38480;52.724;6.436;2024-02-28T08:44:53;61.43;;;31.57;;
52586;SDS011;38480;52.724;6.436;2024-02-28T08:47:23;64.40;;;35.00;;
52586;SDS011;38480;52.724;6.436;2024-02-28T08:49:49;65.40;;;33.23;;
52586;SDS011;38480;52.724;6.436;2024-02-28T08:52:15;57.27;;;32.00;;
52586;SDS011;38480;52.724;6.436;2024-02-28T08:54:41;61.40;;;33.07;;
52586;SDS011;38480;52.724;6.436;2024-02-28T08:57:07;61.17;;;32.10;;
52586;SDS011;38480;52.724;6.436;2024-02-28T08:59:33;50.20;;;30.10;;
52586;SDS011;38480;52.724;6.436;2024-02-28T09:01:59;55.77;;;31.77;;
52586;SDS011;38480;52.724;6.436;2024-02-28T09:04:25;48.67;;;28.17;;
52586;SDS011;38480;52.724;6.436;2024-02-28T09:06:51;48.30;;;29.57;;
52586;SDS011;38480;52.724;6.436;2024-02-28T09:09:18;47.57;;;28.83;;
52586;SDS011;38480;52.724;6.436;2024-02-28T09:11:44;51.80;;;28.47;;
52586;SDS011;38480;52.724;6.436;2024-02-28T09:14:10;49.87;;;28.77;;
52586;SDS011;38480;52.724;6.436;2024-02-28T09:16:36;44.80;;;27.23;;
52586;SDS011;38480;52.724;6.436;2024-02-28T09:19:03;45.47;;;27.50;;
52586;SDS011;38480;52.724;6.436;2024-02-28T09:21:29;48.10;;;28.13;;
52586;SDS011;38480;52.724;6.436;2024-02-28T09:23:55;42.47;;;25.90;;
52586;SDS011;38480;52.724;6.436;2024-02-28T09:26:21;46.13;;;28.77;;
52586;SDS011;38480;52.724;6.436;2024-02-28T09:28:47;43.80;;;27.37;;
52586;SDS011;38480;52.724;6.436;2024-02-28T09:31:13;49.97;;;30.10;;
52586;SDS011;38480;52.724;6.436;2024-02-28T09:33:40;47.03;;;29.20;;
52586;SDS011;38480;52.724;6.436;2024-02-28T09:36:06;44.53;;;29.00;;
52586;SDS011;38480;52.724;6.436;2024-02-28T09:38:32;44.93;;;28.57;;
52586;SDS011;38480;52.724;6.436;2024-02-28T09:41:00;44.97;;;27.83;;
52586;SDS011;38480;52.724;6.436;2024-02-28T09:43:29;45.50;;;28.53;;
52586;SDS011;38480;52.724;6.436;2024-02-28T09:46:14;49.53;;;30.53;;
52586;SDS011;38480;52.724;6.436;2024-02-28T09:48:40;42.23;;;26.23;;
52586;SDS011;38480;52.724;6.436;2024-02-28T09:51:06;40.23;;;27.63;;
52586;SDS011;38480;52.724;6.436;2024-02-28T09:53:34;42.43;;;27.43;;
52586;SDS011;38480;52.724;6.436;2024-02-28T09:56:00;41.33;;;26.53;;
52586;SDS011;38480;52.724;6.436;2024-02-28T09:58:27;43.03;;;26.93;;
52586;SDS011;38480;52.724;6.436;2024-02-28T10:00:55;43.90;;;27.27;;
52586;SDS011;38480;52.724;6.436;2024-02-28T10:03:24;44.17;;;27.47;;
52586;SDS011;38480;52.724;6.436;2024-02-28T10:05:51;41.97;;;27.77;;
52586;SDS011;38480;52.724;6.436;2024-02-28T10:08:17;36.73;;;25.77;;
52586;SDS011;38480;52.724;6.436;2024-02-28T10:10:46;39.33;;;26.33;;
52586;SDS011;38480;52.724;6.436;2024-02-28T10:13:13;38.67;;;24.50;;
52586;SDS011;38480;52.724;6.436;2024-02-28T10:15:39;39.43;;;26.33;;
52586;SDS011;38480;52.724;6.436;2024-02-28T10:18:05;42.07;;;25.97;;
52586;SDS011;38480;52.724;6.436;2024-02-28T10:20:31;41.67;;;25.10;;
52586;SDS011;38480;52.724;6.436;2024-02-28T10:22:57;39.33;;;27.20;;
52586;SDS011;38480;52.724;6.436;2024-02-28T10:25:23;38.70;;;27.00;;
52586;SDS011;38480;52.724;6.436;2024-02-28T10:27:51;40.80;;;26.57;;
52586;SDS011;38480;52.724;6.436;2024-02-28T10:30:18;41.30;;;27.17;;
52586;SDS011;38480;52.724;6.436;2024-02-28T10:32:51;33.27;;;25.60;;
52586;SDS011;38480;52.724;6.436;2024-02-28T10:35:17;41.05;;;28.48;;
52586;SDS011;38480;52.724;6.436;2024-02-28T10:37:51;36.70;;;24.88;;
52586;SDS011;38480;52.724;6.436;2024-02-28T10:40:19;37.93;;;26.27;;
52586;SDS011;38480;52.724;6.436;2024-02-28T10:42:46;33.67;;;24.83;;
52586;SDS011;38480;52.724;6.436;2024-02-28T10:45:13;38.40;;;24.83;;
52586;SDS011;38480;52.724;6.436;2024-02-28T10:47:40;37.30;;;26.00;;
52586;SDS011;38480;52.724;6.436;2024-02-28T10:50:07;34.77;;;24.03;;
52586;SDS011;38480;52.724;6.436;2024-02-28T10:52:34;32.23;;;24.17;;
52586;SDS011;38480;52.724;6.436;2024-02-28T10:55:01;34.90;;;26.03;;
52586;SDS011;38480;52.724;6.436;2024-02-28T10:57:27;34.13;;;23.67;;
52586;SDS011;38480;52.724;6.436;2024-02-28T10:59:55;32.10;;;23.80;;
52586;SDS011;38480;52.724;6.436;2024-02-28T11:02:22;32.07;;;23.50;;
52586;SDS011;38480;52.724;6.436;2024-02-28T11:04:50;34.07;;;23.77;;
52586;SDS011;38480;52.724;6.436;2024-02-28T11:07:20;32.77;;;23.83;;
52586;SDS011;38480;52.724;6.436;2024-02-28T11:09:46;30.50;;;23.47;;
52586;SDS011;38480;52.724;6.436;2024-02-28T11:12:23;28.87;;;22.93;;
52586;SDS011;38480;52.724;6.436;2024-02-28T11:15:00;31.53;;;24.23;;
52586;SDS011;38480;52.724;6.436;2024-02-28T11:17:27;32.07;;;25.43;;
52586;SDS011;38480;52.724;6.436;2024-02-28T11:19:53;31.57;;;24.37;;
52586;SDS011;38480;52.724;6.436;2024-02-28T11:22:20;33.13;;;23.33;;
52586;SDS011;38480;52.724;6.436;2024-02-28T11:24:47;31.47;;;23.37;;
52586;SDS011;38480;52.724;6.436;2024-02-28T11:27:16;29.77;;;23.47;;
52586;SDS011;38480;52.724;6.436;2024-02-28T11:29:42;29.30;;;23.53;;
52586;SDS011;38480;52.724;6.436;2024-02-28T11:32:10;31.37;;;24.43;;
52586;SDS011;38480;52.724;6.436;2024-02-28T11:34:37;33.33;;;24.57;;
52586;SDS011;38480;52.724;6.436;2024-02-28T11:37:05;32.07;;;23.93;;
52586;SDS011;38480;52.724;6.436;2024-02-28T11:39:31;30.77;;;22.47;;
52586;SDS011;38480;52.724;6.436;2024-02-28T11:42:14;32.50;;;24.30;;
52586;SDS011;38480;52.724;6.436;2024-02-28T11:44:40;33.03;;;23.77;;
52586;SDS011;38480;52.724;6.436;2024-02-28T11:47:10;30.90;;;23.87;;
52586;SDS011;38480;52.724;6.436;2024-02-28T11:49:36;32.87;;;23.37;;
52586;SDS011;38480;52.724;6.436;2024-02-28T11:52:03;32.63;;;25.47;;
52586;SDS011;38480;52.724;6.436;2024-02-28T11:54:29;32.27;;;24.77;;
52586;SDS011;38480;52.724;6.436;2024-02-28T11:56:55;33.97;;;24.90;;
52586;SDS011;38480;52.724;6.436;2024-02-28T11:59:22;32.23;;;23.83;;
52586;SDS011;38480;52.724;6.436;2024-02-28T12:01:48;30.43;;;24.23;;
52586;SDS011;38480;52.724;6.436;2024-02-28T12:04:15;30.77;;;25.53;;
52586;SDS011;38480;52.724;6.436;2024-02-28T12:06:41;32.87;;;24.37;;
52586;SDS011;38480;52.724;6.436;2024-02-28T12:09:08;32.60;;;27.40;;
52586;SDS011;38480;52.724;6.436;2024-02-28T12:11:34;33.93;;;24.40;;
52586;SDS011;38480;52.724;6.436;2024-02-28T12:14:04;30.27;;;23.53;;
52586;SDS011;38480;52.724;6.436;2024-02-28T12:16:34;35.15;;;25.23;;
52586;SDS011;38480;52.724;6.436;2024-02-28T12:19:00;32.07;;;25.70;;
52586;SDS011;38480;52.724;6.436;2024-02-28T12:21:26;34.30;;;25.90;;
52586;SDS011;38480;52.724;6.436;2024-02-28T12:23:52;31.00;;;24.47;;
52586;SDS011;38480;52.724;6.436;2024-02-28T12:26:18;35.00;;;25.67;;
52586;SDS011;38480;52.724;6.436;2024-02-28T12:28:44;33.53;;;26.00;;
52586;SDS011;38480;52.724;6.436;2024-02-28T12:31:11;32.30;;;25.73;;
52586;SDS011;38480;52.724;6.436;2024-02-28T12:33:38;40.77;;;27.03;;
52586;SDS011;38480;52.724;6.436;2024-02-28T12:36:04;35.43;;;26.33;;
52586;SDS011;38480;52.724;6.436;2024-02-28T12:38:30;35.73;;;25.73;;
52586;SDS011;38480;52.724;6.436;2024-02-28T12:40:56;35.23;;;26.43;;
52586;SDS011;38480;52.724;6.436;2024-02-28T12:43:23;36.90;;;26.60;;
52586;SDS011;38480;52.724;6.436;2024-02-28T12:45:50;36.53;;;26.57;;
52586;SDS011;38480;52.724;6.436;2024-02-28T12:48:16;35.00;;;27.37;;
52586;SDS011;38480;52.724;6.436;2024-02-28T12:50:42;32.73;;;26.57;;
52586;SDS011;38480;52.724;6.436;2024-02-28T12:53:08;37.27;;;26.20;;
52586;SDS011;38480;52.724;6.436;2024-02-28T12:55:34;33.90;;;24.60;;
52586;SDS011;38480;52.724;6.436;2024-02-28T12:58:00;36.27;;;25.73;;
52586;SDS011;38480;52.724;6.436;2024-02-28T13:00:30;33.67;;;25.10;;
52586;SDS011;38480;52.724;6.436;2024-02-28T13:02:56;36.60;;;25.17;;
52586;SDS011;38480;52.724;6.436;2024-02-28T13:05:22;32.33;;;23.90;;
52586;SDS011;38480;52.724;6.436;2024-02-28T13:07:48;36.37;;;26.33;;
52586;SDS011;38480;52.724;6.436;2024-02-28T13:10:14;34.33;;;27.07;;
52586;SDS011;38480;52.724;6.436;2024-02-28T13:12:40;32.13;;;24.13;;
52586;SDS011;38480;52.724;6.436;2024-02-28T13:15:07;31.93;;;24.30;;
52586;SDS011;38480;52.724;6.436;2024-02-28T13:17:33;37.50;;;26.13;;
52586;SDS011;38480;52.724;6.436;2024-02-28T13:19:59;34.07;;;26.27;;
52586;SDS011;38480;52.724;6.436;2024-02-28T13:22:25;34.20;;;24.10;;
52586;SDS011;38480;52.724;6.436;2024-02-28T13:24:51;31.80;;;23.67;;
52586;SDS011;38480;52.724;6.436;2024-02-28T13:27:17;32.70;;;22.33;;
52586;SDS011;38480;52.724;6.436;2024-02-28T13:29:43;31.57;;;22.40;;
52586;SDS011;38480;52.724;6.436;2024-02-28T13:32:09;28.23;;;22.30;;
52586;SDS011;38480;52.724;6.436;2024-02-28T13:34:35;29.20;;;22.50;;
52586;SDS011;38480;52.724;6.436;2024-02-28T13:37:01;30.77;;;20.90;;
52586;SDS011;38480;52.724;6.436;2024-02-28T13:39:27;29.60;;;23.20;;
52586;SDS011;38480;52.724;6.436;2024-02-28T13:41:54;33.77;;;23.87;;
52586;SDS011;38480;52.724;6.436;2024-02-28T13:44:21;30.50;;;22.30;;
52586;SDS011;38480;52.724;6.436;2024-02-28T13:46:47;29.07;;;21.47;;
52586;SDS011;38480;52.724;6.436;2024-02-28T13:49:13;33.63;;;21.83;;
52586;SDS011;38480;52.724;6.436;2024-02-28T13:51:41;34.60;;;22.47;;
52586;SDS011;38480;52.724;6.436;2024-02-28T13:54:08;32.17;;;22.60;;
52586;SDS011;38480;52.724;6.436;2024-02-28T13:56:34;31.40;;;22.30;;
52586;SDS011;38480;52.724;6.436;2024-02-28T13:59:00;29.00;;;22.80;;
52586;SDS011;38480;52.724;6.436;2024-02-28T14:01:26;29.67;;;21.57;;
52586;SDS011;38480;52.724;6.436;2024-02-28T14:03:53;32.20;;;23.03;;
52586;SDS011;38480;52.724;6.436;2024-02-28T14:06:19;28.40;;;21.93;;
52586;SDS011;38480;52.724;6.436;2024-02-28T14:08:45;29.20;;;22.30;;
52586;SDS011;38480;52.724;6.436;2024-02-28T14:11:12;36.67;;;24.27;;